LiveATC.Net - Listen to live air traffic control over the Internet!


ICAO: LKTB  IATA: BRQ   Airport: Brno-Turany Airport
City: Brno
Country: Czech Republic   Continent: Europe
LKTB METAR Weather: LKTB 180430Z 13014KT 9999 BKN019 12/09 Q1007 NOSIG
LKTB Flight Activity (FlightAware)

LKTB Gnd/Twr/Radar
Feed Status: UP   Listeners: 0
Listen in your browser - HTML5 player (in browser, HTML5)
Click here to listen with your own player (launches your MP3 player)
Archive Access: LKTB Gnd/Twr/Radar
FacilityFrequency
Brno Ground125.430
Brno Handling131.800
Brno Radar (Approach)127.350
Brno Tower119.605

NOTICE

Unauthorized use prohibited. See LiveATC.net Terms of Service


Airport/ARTCC Code
Frequency Search
(e.g., 124.400, 128.75)
Site-wide search
 


Browse LiveATC Feeds
Top 50 LiveATC Feeds
LiveATC Feed Map
Bad Weather Areas

LiveATC FAQ
Offer LiveATC feed
Contact LiveATC.net
Press Inquiries

LiveATC on iPhone
LiveATC on Android

Windows Phone
Windows 8/10

LiveATC Mobile
(Mobile browser)

ATC Audio Archives
Interesting Recordings

LiveATC Forums


Home Page
About LiveATC.net
Make a Donation
Terms of Use
Privacy Policy

Canadian Air Freqs

AIRMETs/SIGMETs

FAA Airport Status
Nat'l Airspace Status
Arrival Demand Charts


Server Software By:
Icecast.org
Liquidsoap